createdAt,value
2019-04-14T00:00:16.478Z,90.09
2019-04-14T00:02:55.466Z,89.61
2019-04-14T00:05:31.430Z,90.04
2019-04-14T00:08:02.685Z,90.10
2019-04-14T00:10:35.496Z,90.46
2019-04-14T00:13:08.976Z,90.50
2019-04-14T00:15:45.151Z,90.71
2019-04-14T00:18:16.447Z,90.84
2019-04-14T00:20:49.572Z,90.66
2019-04-14T00:23:22.256Z,90.65
2019-04-14T00:25:54.556Z,90.83
2019-04-14T00:28:27.715Z,90.78
2019-04-14T00:31:02.388Z,91.03
2019-04-14T00:33:35.114Z,90.54
2019-04-14T00:36:10.992Z,90.76
2019-04-14T00:38:46.012Z,90.70
2019-04-14T00:41:41.323Z,90.66
2019-04-14T00:44:14.551Z,90.45
2019-04-14T00:46:58.277Z,90.69
2019-04-14T00:49:31.171Z,90.24
2019-04-14T00:52:04.144Z,90.14
2019-04-14T00:54:39.210Z,90.32
2019-04-14T00:57:11.826Z,90.48
2019-04-14T00:59:44.106Z,90.43
2019-04-14T01:02:16.768Z,90.26
2019-04-14T01:04:51.229Z,90.36
2019-04-14T01:07:24.138Z,90.36
2019-04-14T01:09:57.526Z,90.52
2019-04-14T01:12:30.354Z,90.21
2019-04-14T01:15:05.001Z,90.20
2019-04-14T01:17:37.858Z,90.27
2019-04-14T01:20:10.736Z,90.28
2019-04-14T01:22:44.476Z,90.25
2019-04-14T01:25:17.332Z,90.37
2019-04-14T01:27:51.734Z,90.21
2019-04-14T01:30:24.188Z,90.30
2019-04-14T01:32:56.905Z,90.12
2019-04-14T01:35:29.599Z,90.05
2019-04-14T01:38:02.282Z,90.24
2019-04-14T01:40:35.938Z,90.15
2019-04-14T01:43:09.984Z,90.11
2019-04-14T01:45:43.123Z,90.21
2019-04-14T01:48:17.087Z,89.99
2019-04-14T01:50:51.676Z,89.89
2019-04-14T01:53:29.287Z,90.07
2019-04-14T01:56:16.506Z,89.95
2019-04-14T01:58:53.617Z,90.04
2019-04-14T02:01:30.577Z,89.97
2019-04-14T02:04:03.217Z,89.43
2019-04-14T02:06:35.833Z,89.87
2019-04-14T02:09:12.204Z,89.95
2019-04-14T02:11:44.888Z,90.03
2019-04-14T02:14:17.408Z,89.67
2019-04-14T02:16:55.242Z,89.61
2019-04-14T02:19:26.252Z,89.05
2019-04-14T02:21:58.831Z,89.31
2019-04-14T02:24:31.434Z,89.37
2019-04-14T02:27:03.681Z,89.17
2019-04-14T02:29:36.710Z,89.26
2019-04-14T02:32:47.178Z,89.22
2019-04-14T02:35:10.862Z,89.12
2019-04-14T02:37:45.504Z,88.64
2019-04-14T02:40:33.163Z,88.93
2019-04-14T02:42:54.236Z,88.69
2019-04-14T02:45:45.205Z,88.51
2019-04-14T02:53:15.657Z,87.54
2019-04-14T02:55:48.921Z,87.23
2019-04-14T03:01:02.839Z,87.45
2019-04-14T03:06:10.440Z,87.17
2019-04-14T03:11:26.963Z,87.33
2019-04-14T03:13:44.971Z,87.01
2019-04-14T03:16:23.540Z,87.43
2019-04-14T03:32:23.538Z,86.28
2019-04-14T03:34:52.078Z,86.18
2019-04-14T03:37:37.649Z,86.55
2019-04-14T03:42:31.328Z,86.66
2019-04-14T03:45:00.520Z,86.39
2019-04-14T03:50:09.710Z,86.50
2019-04-14T03:55:05.552Z,85.84
2019-04-14T03:57:27.031Z,86.01
2019-04-14T03:59:58.917Z,85.92
2019-04-14T04:02:31.599Z,85.81
2019-04-14T04:05:04.325Z,85.89
2019-04-14T04:07:37.047Z,85.35
2019-04-14T04:10:11.497Z,85.47
2019-04-14T04:12:44.463Z,85.34
2019-04-14T04:15:17.063Z,85.17
2019-04-14T04:17:51.672Z,85.04
2019-04-14T04:20:26.369Z,85.25
2019-04-14T04:23:07.388Z,85.10
2019-04-14T04:25:42.199Z,84.82
2019-04-14T04:28:14.515Z,84.66
2019-04-14T04:30:51.851Z,84.28
2019-04-14T04:33:42.338Z,84.22
2019-04-14T04:36:29.159Z,84.10
2019-04-14T04:39:03.942Z,83.78
2019-04-14T04:41:36.977Z,83.60
2019-04-14T04:44:09.655Z,83.69
2019-04-14T04:46:43.722Z,83.52
2019-04-14T04:49:21.753Z,83.67
2019-04-14T04:51:53.039Z,83.25
2019-04-14T04:54:27.830Z,83.33
2019-04-14T04:57:01.041Z,82.56
2019-04-14T04:59:34.360Z,82.37
2019-04-14T05:02:07.110Z,82.52
2019-04-14T05:04:39.786Z,81.85
2019-04-14T05:07:12.521Z,81.77
2019-04-14T05:09:46.935Z,82.24
2019-04-14T05:12:24.253Z,82.12
2019-04-14T05:15:00.986Z,81.64
2019-04-14T05:17:38.909Z,82.04
2019-04-14T05:20:12.045Z,81.55
2019-04-14T05:22:44.716Z,81.61
2019-04-14T05:25:17.405Z,81.48
2019-04-14T05:27:50.079Z,81.30
2019-04-14T05:30:22.767Z,81.44
2019-04-14T05:32:56.512Z,80.87
2019-04-14T05:35:29.448Z,81.19
2019-04-14T05:38:02.183Z,80.99
2019-04-14T05:40:34.492Z,80.66
2019-04-14T05:43:07.133Z,80.55
2019-04-14T05:45:39.852Z,80.83
2019-04-14T05:48:12.098Z,80.25
2019-04-14T05:50:44.802Z,79.96
2019-04-14T05:53:17.524Z,79.64
2019-04-14T05:55:50.422Z,80.04
2019-04-14T05:58:23.292Z,79.50
2019-04-14T06:00:55.926Z,79.10
2019-04-14T06:03:29.835Z,78.27
2019-04-14T06:06:03.612Z,78.39
2019-04-14T06:08:36.224Z,78.37
2019-04-14T06:11:08.906Z,77.71
2019-04-14T06:13:41.639Z,78.01
2019-04-14T06:16:14.358Z,77.24
2019-04-14T06:18:47.036Z,77.41
2019-04-14T06:21:19.721Z,76.75
2019-04-14T06:23:52.401Z,76.97
2019-04-14T06:26:24.970Z,75.86
2019-04-14T06:28:57.219Z,76.26
2019-04-14T06:31:47.544Z,75.62
2019-04-14T06:34:21.747Z,75.37
2019-04-14T06:36:59.036Z,74.52
2019-04-14T06:39:39.183Z,73.73
2019-04-14T06:42:11.492Z,74.65
2019-04-14T06:44:43.728Z,73.78
2019-04-14T06:47:16.411Z,73.98
2019-04-14T06:49:49.426Z,73.91
2019-04-14T06:52:22.489Z,73.79
2019-04-14T06:54:55.156Z,73.30
2019-04-14T06:57:27.836Z,73.27
2019-04-14T07:00:00.075Z,72.26
2019-04-14T07:02:32.791Z,73.09
2019-04-14T07:05:07.116Z,72.66
2019-04-14T07:07:39.422Z,73.55
2019-04-14T07:10:12.062Z,73.91
2019-04-14T07:12:44.366Z,73.01
2019-04-14T07:15:17.009Z,72.10
2019-04-14T07:17:49.680Z,72.81
2019-04-14T07:20:22.253Z,72.82
2019-04-14T07:22:54.936Z,73.17
2019-04-14T07:25:27.626Z,72.29
2019-04-14T07:28:00.142Z,72.88
2019-04-14T07:30:47.406Z,72.58
2019-04-14T07:33:31.648Z,72.26
2019-04-14T07:36:12.737Z,71.59
2019-04-14T07:38:46.856Z,72.18
2019-04-14T07:41:29.881Z,71.28
2019-04-14T07:44:04.073Z,71.61
2019-04-14T07:46:56.140Z,71.33
2019-04-14T07:49:42.418Z,71.48
2019-04-14T07:52:28.613Z,71.01
2019-04-14T07:55:00.985Z,70.06
2019-04-14T07:57:53.541Z,69.56
2019-04-14T08:00:31.644Z,69.74
2019-04-14T08:03:07.142Z,70.38
2019-04-14T08:05:41.405Z,69.62
2019-04-14T08:08:13.647Z,69.68
2019-04-14T08:10:46.357Z,69.22
2019-04-14T08:13:19.025Z,69.43
2019-04-14T08:15:51.565Z,69.14
2019-04-14T08:18:24.050Z,69.11
2019-04-14T08:20:56.765Z,68.23
2019-04-14T08:23:29.450Z,67.72
2019-04-14T08:26:02.127Z,68.04
2019-04-14T08:28:34.802Z,67.49
2019-04-14T08:31:07.534Z,67.12
2019-04-14T08:33:40.148Z,66.75
2019-04-14T08:36:13.858Z,66.59
2019-04-14T08:38:46.433Z,66.38
2019-04-14T08:41:19.119Z,65.05
2019-04-14T08:44:09.300Z,65.43
2019-04-14T08:46:42.259Z,64.92
2019-04-14T08:49:31.152Z,63.41
2019-04-14T08:52:11.512Z,63.10
2019-04-14T08:54:55.962Z,62.16
2019-04-14T08:57:45.234Z,61.67
2019-04-14T09:00:26.303Z,61.40
2019-04-14T09:03:03.335Z,58.81
2019-04-14T09:05:37.495Z,58.06
2019-04-14T09:08:17.973Z,59.31
2019-04-14T09:10:54.635Z,58.75
2019-04-14T09:13:26.940Z,58.20
2019-04-14T09:15:59.590Z,55.28
2019-04-14T09:18:32.371Z,54.97
2019-04-14T09:21:06.279Z,52.00
2019-04-14T09:23:39.056Z,51.84
2019-04-14T09:26:11.736Z,51.75
2019-04-14T09:28:44.419Z,49.99
2019-04-14T09:31:17.094Z,49.84
2019-04-14T09:33:49.774Z,48.08
2019-04-14T09:36:22.447Z,48.02
2019-04-14T09:38:56.925Z,47.66
2019-04-14T09:41:29.554Z,46.99
2019-04-14T09:44:02.225Z,46.95
2019-04-14T09:46:35.932Z,45.12
2019-04-14T09:49:08.617Z,44.60
2019-04-14T09:51:41.295Z,42.89
2019-04-14T09:54:14.073Z,42.86
2019-04-14T09:56:46.744Z,41.74
2019-04-14T09:59:19.059Z,41.37
2019-04-14T10:01:51.803Z,39.80
2019-04-14T10:04:24.487Z,41.35
2019-04-14T10:06:57.259Z,41.17
2019-04-14T10:09:30.256Z,41.56
2019-04-14T10:12:02.931Z,37.73
2019-04-14T10:14:35.601Z,38.41
2019-04-14T10:17:08.386Z,37.10
2019-04-14T10:19:41.071Z,37.38
2019-04-14T10:22:13.309Z,38.19
2019-04-14T10:24:45.925Z,37.94
2019-04-14T10:27:18.692Z,39.55
2019-04-14T10:29:51.377Z,38.52
2019-04-14T10:32:24.053Z,39.59
2019-04-14T10:34:57.917Z,39.01
2019-04-14T10:37:30.532Z,39.96
2019-04-14T10:40:05.962Z,40.91
2019-04-14T10:42:38.965Z,39.44
2019-04-14T10:45:11.781Z,39.75
2019-04-14T10:47:44.635Z,38.70
2019-04-14T10:50:29.989Z,40.22
2019-04-14T10:52:51.502Z,37.79
2019-04-14T10:55:24.199Z,34.61
2019-04-14T10:57:56.883Z,32.54
2019-04-14T11:00:29.529Z,33.11
2019-04-14T11:03:02.138Z,32.21
2019-04-14T11:05:53.454Z,33.35
2019-04-14T11:08:26.233Z,32.57
2019-04-14T11:10:59.214Z,29.04
2019-04-14T11:13:31.804Z,28.55
2019-04-14T11:16:04.486Z,29.90
2019-04-14T11:18:37.158Z,29.61
2019-04-14T11:21:09.837Z,28.99
2019-04-14T11:23:42.525Z,30.27
2019-04-14T11:26:14.828Z,29.81
2019-04-14T11:28:48.690Z,29.98
2019-04-14T11:31:25.683Z,28.52
2019-04-14T11:34:03.060Z,29.69
2019-04-14T11:36:40.254Z,29.06
2019-04-14T11:39:14.065Z,29.00
2019-04-14T11:41:46.888Z,29.80
2019-04-14T11:44:19.823Z,29.79
2019-04-14T11:46:52.164Z,29.84
2019-04-14T11:49:25.590Z,29.08
2019-04-14T11:51:58.478Z,26.75
2019-04-14T11:54:31.146Z,28.22
2019-04-14T11:57:03.841Z,28.92
2019-04-14T11:59:38.328Z,28.29
2019-04-14T12:02:21.425Z,27.77
2019-04-14T12:05:04.290Z,26.97
2019-04-14T12:07:40.978Z,27.15
2019-04-14T12:10:14.989Z,26.51
2019-04-14T12:12:47.761Z,26.95
2019-04-14T12:15:20.801Z,26.13
2019-04-14T12:17:53.525Z,26.79
2019-04-14T12:20:26.211Z,27.13
2019-04-14T12:22:58.748Z,27.41
2019-04-14T12:25:31.369Z,27.52
2019-04-14T12:28:04.764Z,26.90
2019-04-14T12:30:37.740Z,26.75
2019-04-14T12:33:10.732Z,25.07
2019-04-14T12:35:43.207Z,23.49
2019-04-14T12:38:15.887Z,25.75
2019-04-14T12:40:50.045Z,25.06
2019-04-14T12:43:30.970Z,24.45
2019-04-14T12:46:20.546Z,26.22
2019-04-14T12:49:09.720Z,24.28
2019-04-14T12:51:46.687Z,24.53
2019-04-14T12:54:21.021Z,23.83
2019-04-14T12:56:53.747Z,24.59
2019-04-14T12:59:29.327Z,25.08
2019-04-14T13:02:07.755Z,25.66
2019-04-14T13:04:40.524Z,24.81
2019-04-14T13:07:13.210Z,24.62
2019-04-14T13:09:47.016Z,25.38
2019-04-14T13:12:19.689Z,24.57
2019-04-14T13:14:52.377Z,25.01
2019-04-14T13:17:25.348Z,23.46
2019-04-14T13:19:57.898Z,23.57
2019-04-14T13:22:34.132Z,23.81
2019-04-14T13:25:07.084Z,22.78
2019-04-14T13:27:39.455Z,23.47
2019-04-14T13:30:14.249Z,22.76
2019-04-14T13:32:46.490Z,22.26
2019-04-14T13:35:18.929Z,22.24
2019-04-14T13:37:51.579Z,22.12
2019-04-14T13:40:23.874Z,22.23
2019-04-14T13:42:56.570Z,21.91
2019-04-14T13:45:29.308Z,22.83
2019-04-14T13:48:01.989Z,22.29
2019-04-14T13:50:34.686Z,22.39
2019-04-14T13:53:07.341Z,22.79
2019-04-14T13:55:40.026Z,23.53
2019-04-14T13:58:12.700Z,22.83
2019-04-14T14:00:45.387Z,21.69
2019-04-14T14:03:18.060Z,21.49
2019-04-14T14:05:51.357Z,22.28
2019-04-14T14:08:24.033Z,20.96
2019-04-14T14:10:58.342Z,20.93
2019-04-14T14:13:38.501Z,21.61
2019-04-14T14:16:12.822Z,21.85
2019-04-14T14:18:56.147Z,22.27
2019-04-14T14:21:31.381Z,22.42
2019-04-14T14:24:17.686Z,22.32
2019-04-14T14:26:51.551Z,22.16
2019-04-14T14:29:23.691Z,21.43
2019-04-14T14:31:57.671Z,21.22
2019-04-14T14:34:30.352Z,20.39
2019-04-14T14:37:03.022Z,21.03
2019-04-14T14:39:36.220Z,21.21
2019-04-14T14:42:08.897Z,20.49
2019-04-14T14:44:45.878Z,20.29
2019-04-14T14:47:20.101Z,20.89
2019-04-14T14:49:54.316Z,20.81
2019-04-14T14:52:27.309Z,20.35
2019-04-14T14:54:59.978Z,20.10
2019-04-14T14:57:32.277Z,20.34
2019-04-14T15:00:10.750Z,20.06
2019-04-14T15:02:43.431Z,19.38
2019-04-14T15:05:16.419Z,19.94
2019-04-14T15:07:49.100Z,19.35
2019-04-14T15:10:21.781Z,20.10
2019-04-14T15:12:54.467Z,20.34
2019-04-14T15:15:27.173Z,19.98
2019-04-14T15:17:59.916Z,19.66
2019-04-14T15:20:32.711Z,20.73
2019-04-14T15:23:05.989Z,20.55
2019-04-14T15:25:38.671Z,20.15
2019-04-14T15:28:11.359Z,20.45
2019-04-14T15:30:44.038Z,20.75
2019-04-14T15:33:16.712Z,21.22
2019-04-14T15:35:49.386Z,21.34
2019-04-14T15:38:21.973Z,21.42
2019-04-14T15:40:54.215Z,21.48
2019-04-14T15:43:26.508Z,21.70
2019-04-14T15:45:59.195Z,21.42
2019-04-14T15:48:31.909Z,20.93
2019-04-14T15:51:04.553Z,20.75
2019-04-14T15:53:38.411Z,21.33
2019-04-14T15:56:12.865Z,20.72
2019-04-14T15:58:50.168Z,21.21
2019-04-14T16:01:30.415Z,21.27
2019-04-14T16:04:04.648Z,21.68
2019-04-14T16:06:47.860Z,21.33
2019-04-14T16:09:24.703Z,21.44
2019-04-14T16:12:02.872Z,21.44
2019-04-14T16:14:37.580Z,21.41
2019-04-14T16:17:28.182Z,21.78
2019-04-14T16:20:11.496Z,22.28
2019-04-14T16:22:44.277Z,22.00
2019-04-14T16:25:16.580Z,21.79
2019-04-14T16:28:03.060Z,21.45
2019-04-14T16:30:40.133Z,22.13
2019-04-14T16:33:14.347Z,21.94
2019-04-14T16:35:48.559Z,22.04
2019-04-14T16:38:21.143Z,21.40
2019-04-14T16:40:54.329Z,21.21
2019-04-14T16:43:27.121Z,21.63
2019-04-14T16:45:59.801Z,22.06
2019-04-14T16:48:32.473Z,21.93
2019-04-14T16:51:06.173Z,21.55
2019-04-14T16:53:40.596Z,21.18
2019-04-14T16:56:14.913Z,21.69
2019-04-14T16:58:48.729Z,21.87
2019-04-14T17:01:28.721Z,21.50
2019-04-14T17:04:01.458Z,21.82
2019-04-14T17:06:34.128Z,23.47
2019-04-14T17:09:08.958Z,24.38
2019-04-14T17:11:43.185Z,25.72
2019-04-14T17:14:17.434Z,26.98
2019-04-14T17:16:57.501Z,26.73
2019-04-14T17:19:37.922Z,27.79
2019-04-14T17:22:15.299Z,28.09
2019-04-14T17:24:55.343Z,28.32
2019-04-14T17:27:29.212Z,28.85
2019-04-14T17:30:22.624Z,29.19
2019-04-14T17:33:04.100Z,30.08
2019-04-14T17:35:54.409Z,29.49
2019-04-14T17:38:29.204Z,30.35
2019-04-14T17:41:21.406Z,30.41
2019-04-14T17:44:06.933Z,30.99
2019-04-14T17:47:12.203Z,31.96
2019-04-14T17:49:53.251Z,31.78
2019-04-14T17:52:46.463Z,32.16
2019-04-14T17:55:34.020Z,33.41
2019-04-14T17:58:23.329Z,33.44
2019-04-14T18:01:12.120Z,33.37
2019-04-14T18:04:04.203Z,33.99
2019-04-14T18:06:58.415Z,35.19
2019-04-14T18:10:01.932Z,34.42
2019-04-14T18:12:49.847Z,35.08
2019-04-14T18:15:50.042Z,35.47
2019-04-14T18:18:46.411Z,35.48
2019-04-14T18:21:39.650Z,35.58
2019-04-14T18:24:41.232Z,35.37
2019-04-14T18:27:17.397Z,35.62
2019-04-14T18:30:07.712Z,36.31
2019-04-14T18:33:22.585Z,36.81
2019-04-14T18:36:19.551Z,36.42
2019-04-14T18:39:02.573Z,36.85
2019-04-14T18:41:58.386Z,36.98
2019-04-14T18:44:49.551Z,36.78
2019-04-14T18:47:32.984Z,37.31
2019-04-14T18:50:19.962Z,37.57
2019-04-14T18:53:07.909Z,38.01
2019-04-14T18:55:53.540Z,37.91
2019-04-14T18:58:52.636Z,37.85
2019-04-14T19:01:36.691Z,38.68
2019-04-14T19:04:15.775Z,38.35
2019-04-14T19:06:57.764Z,38.41
2019-04-14T19:09:37.506Z,38.06
2019-04-14T19:12:25.835Z,38.43
2019-04-14T19:15:17.708Z,38.80
2019-04-14T19:18:05.827Z,38.82
2019-04-14T19:20:47.251Z,38.19
2019-04-14T19:23:32.907Z,38.85
2019-04-14T19:26:16.303Z,39.12
2019-04-14T19:28:57.031Z,38.79
2019-04-14T19:31:43.913Z,39.07
2019-04-14T19:34:19.658Z,38.87
2019-04-14T19:36:59.878Z,39.04
2019-04-14T19:39:32.502Z,39.66
2019-04-14T19:42:05.165Z,39.46
2019-04-14T19:44:37.830Z,39.61
2019-04-14T19:47:11.248Z,39.81
2019-04-14T19:49:44.533Z,40.03
2019-04-14T19:52:20.552Z,39.09
2019-04-14T19:54:53.008Z,39.40
2019-04-14T19:57:25.668Z,39.83
2019-04-14T19:59:58.229Z,40.05
2019-04-14T20:02:30.957Z,40.21
2019-04-14T20:05:03.236Z,40.59
2019-04-14T20:07:35.757Z,41.20
2019-04-14T20:10:09.966Z,41.93
2019-04-14T20:12:42.646Z,42.27
2019-04-14T20:15:16.965Z,42.57
2019-04-14T20:17:53.953Z,43.61
2019-04-14T20:20:28.259Z,43.93
2019-04-14T20:23:10.325Z,44.52
2019-04-14T20:25:47.450Z,44.97
2019-04-14T20:28:21.710Z,45.11
2019-04-14T20:30:55.512Z,45.87
2019-04-14T20:33:27.823Z,46.14
2019-04-14T20:36:00.412Z,46.73
2019-04-14T20:38:33.088Z,47.03
2019-04-14T20:41:05.778Z,47.63
2019-04-14T20:43:38.451Z,47.88
2019-04-14T20:46:10.678Z,48.41
2019-04-14T20:48:43.402Z,48.28
2019-04-14T20:51:16.893Z,48.52
2019-04-14T20:53:50.288Z,49.19
2019-04-14T20:56:22.968Z,49.07
2019-04-14T20:58:55.270Z,49.36
2019-04-14T21:01:29.517Z,49.61
2019-04-14T21:04:09.487Z,49.71
2019-04-14T21:06:43.724Z,50.30
2019-04-14T21:09:20.572Z,50.19
2019-04-14T21:12:13.042Z,50.47
2019-04-14T21:14:46.909Z,50.60
2019-04-14T21:17:38.982Z,51.29
2019-04-14T21:20:13.246Z,51.27
2019-04-14T21:23:03.282Z,51.59
2019-04-14T21:25:44.575Z,51.78
2019-04-14T21:28:25.954Z,51.89
2019-04-14T21:31:03.140Z,51.81
2019-04-14T21:33:47.383Z,52.33
2019-04-14T21:36:36.648Z,52.34
2019-04-14T21:39:11.791Z,52.53
2019-04-14T21:41:46.521Z,52.80
2019-04-14T21:44:18.659Z,52.91
2019-04-14T21:46:51.358Z,52.91
2019-04-14T21:49:24.048Z,53.03
2019-04-14T21:51:59.032Z,52.75
2019-04-14T21:54:31.658Z,53.09
2019-04-14T21:57:13.247Z,53.81
2019-04-14T21:59:48.692Z,54.03
2019-04-14T22:02:40.001Z,54.09
2019-04-14T22:05:23.456Z,54.13
2019-04-14T22:07:55.820Z,54.04
2019-04-14T22:10:32.793Z,54.77
2019-04-14T22:13:05.467Z,54.67
2019-04-14T22:15:38.799Z,54.92
2019-04-14T22:18:11.040Z,55.34
2019-04-14T22:20:43.697Z,55.48
2019-04-14T22:23:16.389Z,55.51
2019-04-14T22:25:48.825Z,55.81
2019-04-14T22:28:21.541Z,55.96
2019-04-14T22:30:54.115Z,56.15
2019-04-14T22:33:26.878Z,56.57
2019-04-14T22:35:59.476Z,56.70
2019-04-14T22:38:32.005Z,56.71
2019-04-14T22:41:05.942Z,56.94
2019-04-14T22:43:38.761Z,57.25
2019-04-14T22:46:11.419Z,57.88
2019-04-14T22:48:44.097Z,57.89
2019-04-14T22:51:16.777Z,58.00
2019-04-14T22:53:49.348Z,58.42
2019-04-14T22:56:21.574Z,58.44
2019-04-14T22:58:54.313Z,58.79
2019-04-14T23:01:28.521Z,59.18
2019-04-14T23:04:11.674Z,59.15
2019-04-14T23:07:02.545Z,59.54
2019-04-14T23:09:35.207Z,59.85
2019-04-14T23:12:10.650Z,60.03
2019-04-14T23:14:42.643Z,60.12
2019-04-14T23:17:16.827Z,60.61
2019-04-14T23:19:56.783Z,60.43
2019-04-14T23:22:30.997Z,60.51
2019-04-14T23:25:03.674Z,61.05
2019-04-14T23:27:36.362Z,61.79
2019-04-14T23:30:09.755Z,61.61
2019-04-14T23:32:42.326Z,61.98
2019-04-14T23:35:15.007Z,61.98
2019-04-14T23:37:47.788Z,62.28
2019-04-14T23:40:20.570Z,62.33
2019-04-14T23:42:53.245Z,62.34
2019-04-14T23:45:26.434Z,62.41
2019-04-14T23:47:58.890Z,62.52
2019-04-14T23:50:31.088Z,62.84
2019-04-14T23:53:04.015Z,63.14
2019-04-14T23:55:36.839Z,63.08
2019-04-14T23:58:09.316Z,63.55
